Aérodrome :
LOGIN :

S'inscrire | Disclaimer

   EN    FR    IT 

 










Légende :    VFR   VFR Marginal   IFR   IFR Intensif   IFR Très Intensif
Visi : 
Plafond : 
>= 8 km
>= 3000ft
5 à 8 km
1000 à 3000 ft
1500m à 5 km
500 à 1000 ft
800 à 1500m
200 à 500 ft
< 800m
< 200 ft
Symboles :   Orages  Brouillard  Fortes neiges  Fortes précipitations  Vent > 20 kt
SIGMETs :   Divers  Orages  Givrage  Turbulence  Onde Orograph.  Cendres Volcan.






- Altitude de l'aérodrome : 265 ft


LFMC - Le Luc

DERNIER METAR :
  • 070230Z AUTO VRB01KT 9999 ////// M01/M01 Q1012

METARs EXPIRÉS :
  • 070200Z AUTO 00000KT 3700 0750 BCFG ////// M01/M01 Q1013
  • 070130Z AUTO 14002KT 0400 0300 FG ////// 00/M00 Q1013
  • 070100Z AUTO VRB01KT 6000 0400 BCFG ////// 00/M00 Q1013
  • 070030Z AUTO VRB02KT 9999 ////// M00/M01 Q1013
  • 070000Z AUTO VRB02KT 9999 ////// 01/00 Q1013

TAF N/A



MET'MAP, la Météo Aéronautique d'un coup d'oeil ! - Copyright ORBIFLY Décembre 2007 - Disclaimer

ORBIFLY MET'MAP TEAM :

Programmation & Développement : Alexandra Zaïnal
Sur une idée originale de : Baudouin d'Aumeries
Soutien technique & logistique : Manuel Goepfert
Assistance : Marc-Olivier Méhu




SOURCES & CREDITS :

   NOAA